Time;durP1;ratioP1;P1;durP2;ratioP2;P2;SDS_P1;SDS_P2;PMS_P1;PMS_P2;Temp;Humidity;BMP_temperature;BMP_pressure;BME280_temperature;BME280_humidity;BME280_pressure;Samples;Min_cycle;Max_cycle;Signal;HPM_P1;HPM_P2
2024/01/01 00:00:06;;;;;;;34.60;15.85;;;9.20;99.90;;;9.19;65.55;98975.38;5018675;28;20517;-83
2024/01/01 00:02:41;;;;;;;37.05;15.88;;;9.20;99.90;;;9.13;65.80;98971.03;5019046;28;20532;-83
2024/01/01 00:05:11;;;;;;;27.75;14.88;;;9.20;99.90;;;9.14;65.93;98967.31;5000920;28;20046;-82
2024/01/01 00:07:39;;;;;;;30.13;14.60;;;9.20;99.90;;;9.17;66.52;98986.25;5000224;28;20501;-83
2024/01/01 00:10:08;;;;;;;27.55;12.52;;;9.20;99.90;;;9.19;65.48;98988.69;5002256;28;20096;-85
2024/01/01 00:12:36;;;;;;;29.30;11.18;;;9.30;99.90;;;9.13;65.72;98982.47;5002259;28;20066;-85
2024/01/01 00:15:06;;;;;;;24.40;12.63;;;9.30;99.90;;;9.20;65.65;98990.28;5019347;28;20100;-84
2024/01/01 00:17:33;;;;;;;25.50;9.70;;;9.30;99.90;;;9.17;65.49;98967.63;5020367;28;20476;-85
2024/01/01 00:20:02;;;;;;;20.10;8.40;;;9.30;99.90;;;9.17;65.03;98970.28;5019396;28;20557;-85
2024/01/01 00:22:30;;;;;;;21.10;8.20;;;9.30;99.90;;;9.19;65.31;98978.03;5020999;28;20564;-85
2024/01/01 00:24:58;;;;;;;17.90;8.35;;;9.30;99.90;;;9.18;64.99;98977.25;5019277;28;20496;-85
2024/01/01 00:27:26;;;;;;;22.75;7.60;;;9.30;99.90;;;9.16;64.09;98976.66;5019507;28;20042;-85
2024/01/01 00:29:54;;;;;;;20.23;7.38;;;9.30;99.90;;;9.15;64.56;98971.59;5002877;28;20044;-85
2024/01/01 00:32:21;;;;;;;16.67;7.43;;;9.30;99.90;;;9.15;64.88;98988.34;5018730;28;20050;-84
2024/01/01 00:34:52;;;;;;;18.65;7.60;;;9.30;99.90;;;9.18;64.86;98984.41;5002170;28;20045;-84
2024/01/01 00:37:22;;;;;;;15.88;7.18;;;9.30;99.90;;;9.16;64.57;98983.84;5017870;28;20134;-85
2024/01/01 00:39:49;;;;;;;22.33;7.30;;;9.30;99.90;;;9.09;63.70;98973.34;5002353;28;20510;-84
2024/01/01 00:42:17;;;;;;;18.83;6.85;;;9.30;99.90;;;9.09;64.35;98965.38;4986147;28;20092;-84
2024/01/01 00:44:45;;;;;;;19.42;6.72;;;9.30;99.90;;;9.13;64.49;98979.81;5018478;28;20054;-84
2024/01/01 00:47:13;;;;;;;23.05;6.45;;;9.30;99.90;;;9.14;64.03;98981.41;5018422;28;20068;-84
2024/01/01 00:49:41;;;;;;;23.25;6.53;;;9.30;99.90;;;9.17;64.11;98983.59;5020245;28;20034;-84
2024/01/01 00:52:08;;;;;;;17.88;6.68;;;9.30;99.90;;;9.09;64.34;98972.53;4986531;28;20050;-84
2024/01/01 00:54:37;;;;;;;19.30;7.05;;;9.20;99.90;;;9.06;64.30;98973.81;5020939;28;20072;-84
2024/01/01 00:57:06;;;;;;;18.65;7.00;;;9.20;99.90;;;9.13;63.99;98976.34;5018875;28;20053;-84
2024/01/01 00:59:33;;;;;;;17.52;6.70;;;9.20;99.90;;;9.03;63.92;98969.00;5018369;28;20037;-84
2024/01/01 01:02:01;;;;;;;17.88;6.95;;;9.20;99.90;;;9.06;63.96;98981.78;5016966;28;20046;-85
2024/01/01 01:04:29;;;;;;;18.30;6.50;;;9.20;99.90;;;9.10;64.23;98974.97;5018213;28;20054;-85
2024/01/01 01:06:57;;;;;;;19.48;6.57;;;9.20;99.90;;;9.11;64.25;98970.44;5018347;28;20048;-85
2024/01/01 01:09:24;;;;;;;16.75;5.60;;;9.20;99.90;;;9.16;64.07;98973.19;5018676;28;20045;-84
2024/01/01 01:11:53;;;;;;;16.77;5.53;;;9.20;99.90;;;9.22;64.26;98969.56;5018040;28;20057;-85
2024/01/01 01:14:21;;;;;;;19.80;6.10;;;9.20;99.90;;;9.15;62.88;98969.72;5018327;28;20132;-85
2024/01/01 01:16:48;;;;;;;12.18;5.22;;;9.20;99.90;;;9.16;63.37;98966.00;5002156;28;20046;-85
2024/01/01 01:19:16;;;;;;;19.00;5.20;;;9.20;99.90;;;9.11;63.07;98965.94;5017547;28;20042;-85
2024/01/01 01:21:43;;;;;;;15.95;4.85;;;9.20;99.90;;;9.09;62.99;98957.38;5019204;28;20042;-85
2024/01/01 01:24:11;;;;;;;13.20;4.90;;;9.20;99.90;;;9.12;63.19;98959.56;5001311;28;20070;-85
2024/01/01 01:26:38;;;;;;;14.45;4.32;;;9.10;99.90;;;9.06;62.80;98957.84;5017514;28;20108;-83
2024/01/01 01:29:07;;;;;;;18.20;4.57;;;9.20;99.90;;;9.08;63.69;98947.81;5001878;28;20080;-85
2024/01/01 01:31:35;;;;;;;17.83;3.70;;;9.10;99.90;;;9.06;62.66;98957.84;5017971;28;20050;-85
2024/01/01 01:34:02;;;;;;;15.13;3.97;;;9.10;99.90;;;9.08;62.74;98955.78;5002029;28;20112;-85
2024/01/01 01:36:30;;;;;;;16.05;4.38;;;9.10;99.90;;;9.11;63.41;98951.81;5017584;28;20106;-85
2024/01/01 01:38:58;;;;;;;13.50;3.10;;;9.10;99.90;;;9.07;62.49;98948.03;5019719;28;20398;-85
2024/01/01 01:41:25;;;;;;;13.23;3.92;;;9.20;99.90;;;9.11;62.93;98962.47;5017807;28;20049;-85
2024/01/01 01:43:53;;;;;;;15.10;3.65;;;9.10;99.90;;;9.05;62.67;98956.25;5001890;28;20100;-85
2024/01/01 01:46:23;;;;;;;15.57;3.60;;;9.10;99.90;;;9.13;63.26;98952.41;5017708;28;20394;-85
2024/01/01 01:48:50;;;;;;;11.07;3.15;;;9.10;99.90;;;9.15;62.40;98945.00;5018418;28;20117;-85
2024/01/01 01:51:18;;;;;;;14.70;3.85;;;9.10;99.90;;;9.01;62.92;98952.44;5017992;28;20096;-85
2024/01/01 01:53:46;;;;;;;12.80;3.45;;;9.10;99.90;;;9.08;63.10;98942.50;5000322;28;20461;-84
2024/01/01 01:56:15;;;;;;;13.43;2.90;;;9.10;99.90;;;9.05;62.42;98948.28;5016647;28;20042;-85
2024/01/01 01:58:42;;;;;;;10.98;2.80;;;9.10;99.90;;;9.08;63.02;98939.81;4998275;28;20042;-84
2024/01/01 02:01:11;;;;;;;14.85;2.38;;;9.10;99.90;;;9.07;62.20;98934.72;4998658;28;20054;-84
2024/01/01 02:03:40;;;;;;;15.45;3.10;;;9.10;99.90;;;9.07;62.13;98937.38;4998787;28;20505;-84
2024/01/01 02:06:08;;;;;;;21.70;3.00;;;9.10;99.90;;;8.97;62.67;98938.00;4999188;28;20056;-85
2024/01/01 02:08:41;;;;;;;13.25;2.85;;;9.10;99.90;;;8.98;63.13;98935.13;4996425;28;20472;-85
2024/01/01 02:11:08;;;;;;;11.57;2.65;;;9.10;99.90;;;9.06;63.54;98933.13;5012858;28;20050;-85
2024/01/01 02:13:36;;;;;;;14.95;2.70;;;9.10;99.90;;;8.94;63.09;98935.84;5013224;28;20046;-85
2024/01/01 02:16:04;;;;;;;17.27;3.17;;;9.10;99.90;;;8.98;63.57;98947.63;5013317;28;20096;-84
2024/01/01 02:18:33;;;;;;;16.77;2.90;;;9.10;99.90;;;9.02;63.37;98951.41;4979650;28;20046;-85
2024/01/01 02:21:02;;;;;;;14.00;2.95;;;9.10;99.90;;;9.01;64.91;98955.09;5014672;28;20049;-85
2024/01/01 02:23:31;;;;;;;12.18;2.55;;;9.00;99.90;;;8.97;65.96;98981.34;5010665;28;20052;-85
2024/01/01 02:25:58;;;;;;;14.40;3.00;;;9.00;99.90;;;8.77;68.02;98981.78;5010935;28;20057;-85
2024/01/01 02:28:26;;;;;;;15.05;2.90;;;8.90;99.90;;;8.72;70.43;98994.97;5010462;28;20501;-85
2024/01/01 02:30:53;;;;;;;16.75;2.85;;;8.80;99.90;;;8.67;71.42;98986.91;5009790;28;20046;-87
2024/01/01 02:33:21;;;;;;;10.68;2.40;;;8.70;99.90;;;8.59;72.28;99011.19;5010080;28;20042;-86
2024/01/01 02:35:50;;;;;;;14.35;2.20;;;8.70;99.90;;;8.60;73.02;99025.28;5011611;28;20060;-85
2024/01/01 02:38:17;;;;;;;15.50;2.55;;;8.60;99.90;;;8.58;73.50;99022.03;5011359;28;20057;-85
2024/01/01 02:40:46;;;;;;;13.93;3.00;;;8.60;99.90;;;8.64;73.99;99035.22;4959867;28;20108;-85
2024/01/01 02:43:14;;;;;;;11.15;2.30;;;8.60;99.90;;;8.69;73.54;99035.31;5009092;28;20065;-85
2024/01/01 02:45:41;;;;;;;16.50;3.05;;;8.60;99.90;;;8.72;73.83;99034.84;4993391;28;20080;-85
2024/01/01 02:48:10;;;;;;;10.82;2.13;;;8.60;99.90;;;8.49;74.08;99045.50;5009637;28;20499;-85
2024/01/01 02:50:38;;;;;;;10.45;2.17;;;8.50;99.90;;;8.30;74.82;99028.88;5010995;28;20096;-85
2024/01/01 02:53:06;;;;;;;12.63;2.20;;;8.30;99.90;;;8.19;75.02;99017.19;5011678;28;20053;-86
2024/01/01 02:55:33;;;;;;;9.20;1.92;;;8.20;99.90;;;8.25;75.03;99023.44;4996285;28;20054;-85
2024/01/01 02:58:05;;;;;;;9.50;2.28;;;8.20;99.90;;;8.34;74.99;99026.53;5014094;28;20052;-85
2024/01/01 03:00:33;;;;;;;;;;;8.30;99.90;;;8.30;75.41;99022.75;5015070;28;20069;-85
2024/01/01 03:03:01;;;;;;;10.93;2.28;;;8.20;99.90;;;8.29;75.52;99026.44;5014635;28;19925;-84
2024/01/01 03:05:28;;;;;;;11.77;1.98;;;8.20;99.90;;;8.29;75.93;99031.75;4999929;28;20069;-84
2024/01/01 03:07:56;;;;;;;11.73;2.17;;;8.20;99.90;;;8.31;75.81;99027.03;5015596;28;20042;-84
2024/01/01 03:10:24;;;;;;;10.98;2.33;;;8.20;99.90;;;8.35;75.89;99026.31;5014528;28;20490;-84
2024/01/01 03:12:51;;;;;;;16.63;2.40;;;8.20;99.90;;;8.36;75.85;99022.66;5015387;28;20050;-84
2024/01/01 03:15:20;;;;;;;18.20;3.00;;;8.20;99.90;;;8.38;75.88;99022.41;4997901;28;20394;-86
2024/01/01 03:17:48;;;;;;;13.10;2.30;;;8.20;99.90;;;8.38;75.28;99015.25;5013376;28;20049;-85
2024/01/01 03:20:16;;;;;;;11.13;2.63;;;8.30;99.90;;;8.33;75.71;99016.97;5013192;28;20476;-84
2024/01/01 03:22:45;;;;;;;12.32;2.13;;;8.20;99.90;;;8.36;76.25;99017.34;4983778;28;20048;-84
2024/01/01 03:25:12;;;;;;;12.65;2.50;;;8.20;99.90;;;8.24;75.91;99024.47;5017196;28;20054;-84
2024/01/01 03:27:39;;;;;;;17.70;2.58;;;8.20;99.90;;;8.37;76.16;99018.16;5018807;28;20413;-84
2024/01/01 03:30:09;;;;;;;14.82;2.50;;;8.30;99.90;;;8.42;75.96;99021.72;5020494;28;20509;-84
2024/01/01 03:32:40;;;;;;;20.00;3.10;;;8.30;99.90;;;8.49;75.60;99021.59;5017871;28;20050;-84
2024/01/01 03:35:08;;;;;;;17.23;2.92;;;8.30;99.90;;;8.47;75.46;99018.34;5016656;28;20050;-84
2024/01/01 03:37:35;;;;;;;16.15;2.50;;;8.30;99.90;;;8.35;75.72;99023.66;5016513;28;20037;-84
2024/01/01 03:40:06;;;;;;;15.35;2.60;;;8.30;99.90;;;8.44;75.74;99011.69;5016354;28;20049;-84
2024/01/01 03:42:34;;;;;;;17.50;3.60;;;8.30;99.90;;;8.42;75.68;99010.28;5016627;28;20066;-84
2024/01/01 03:45:01;;;;;;;15.80;2.42;;;8.30;99.90;;;8.29;76.12;99005.97;5017353;28;20513;-84
2024/01/01 03:47:29;;;;;;;16.60;3.45;;;8.20;99.90;;;8.28;76.39;99015.00;5000166;28;20050;-84
2024/01/01 03:49:58;;;;;;;18.52;3.35;;;8.20;99.90;;;8.25;76.73;99005.66;5018334;28;20064;-84
2024/01/01 03:52:26;;;;;;;18.52;2.95;;;8.20;99.90;;;8.29;76.74;99005.19;5016983;28;20046;-84
2024/01/01 03:54:54;;;;;;;14.38;2.75;;;8.20;99.90;;;8.34;76.29;99005.28;5001181;28;20053;-84
2024/01/01 03:57:23;;;;;;;14.30;2.97;;;8.20;99.90;;;8.35;76.00;99009.59;4984562;28;20100;-84
2024/01/01 03:59:52;;;;;;;18.57;2.70;;;8.30;99.90;;;8.16;76.45;98999.06;5018177;28;20041;-84
2024/01/01 04:02:21;;;;;;;16.77;3.00;;;8.20;99.90;;;8.33;76.38;99011.66;5001060;28;20049;-84
2024/01/01 04:04:49;;;;;;;17.63;3.13;;;8.20;99.90;;;8.42;75.86;98999.66;5017000;28;20045;-84
2024/01/01 04:07:20;;;;;;;13.40;3.13;;;8.30;99.90;;;8.27;75.71;99006.22;4985457;28;20049;-84
2024/01/01 04:09:49;;;;;;;15.98;3.22;;;8.30;99.90;;;8.30;75.95;99001.50;5018612;28;20085;-84
2024/01/01 04:12:16;;;;;;;18.80;3.15;;;8.20;99.90;;;8.32;75.77;99007.38;5016922;28;20100;-84
2024/01/01 04:14:44;;;;;;;14.80;3.50;;;8.20;99.90;;;8.37;76.06;99008.31;5000813;28;20593;-84
2024/01/01 04:17:12;;;;;;;16.05;3.15;;;8.20;99.90;;;8.33;75.64;99009.00;5018012;28;20447;-84
2024/01/01 04:19:44;;;;;;;18.65;2.60;;;8.20;99.90;;;8.34;75.79;99007.94;5017773;28;20044;-84
2024/01/01 04:22:12;;;;;;;19.00;3.10;;;8.20;99.90;;;8.25;76.18;99008.31;5017500;28;20073;-84
2024/01/01 04:24:42;;;;;;;18.63;3.50;;;8.20;99.90;;;8.34;75.98;99003.44;5018364;28;20481;-84
2024/01/01 04:27:10;;;;;;;21.63;2.95;;;8.20;99.90;;;8.37;75.77;99010.19;5017500;28;20133;-84
2024/01/01 04:29:38;;;;;;;15.00;2.80;;;8.30;99.90;;;8.41;75.89;99008.69;5017215;28;20069;-84
2024/01/01 04:32:07;;;;;;;24.23;3.25;;;8.30;99.90;;;8.30;75.36;99002.31;5016647;28;20069;-87
2024/01/01 04:34:35;;;;;;;18.45;3.50;;;8.20;99.90;;;8.31;75.45;99001.25;5017947;28;20050;-85
2024/01/01 04:37:04;;;;;;;25.27;3.47;;;8.20;99.90;;;8.26;75.14;98995.84;5017075;28;20137;-85
2024/01/01 04:39:31;;;;;;;19.40;2.95;;;8.20;99.90;;;8.26;75.38;98995.84;5017396;28;20045;-85
2024/01/01 04:42:00;;;;;;;13.63;2.50;;;8.20;99.90;;;8.26;75.24;98998.50;4999727;28;20038;-85
2024/01/01 04:44:27;;;;;;;21.98;4.57;;;8.20;99.90;;;8.30;75.14;98999.66;5017885;28;20124;-85
2024/01/01 04:46:55;;;;;;;24.20;3.78;;;8.20;99.90;;;8.34;75.08;98997.31;5016456;28;20053;-85
2024/01/01 04:49:23;;;;;;;21.58;3.50;;;8.30;99.90;;;8.38;75.26;99012.59;4984142;28;20394;-85
2024/01/01 04:51:51;;;;;;;18.90;3.45;;;8.30;99.90;;;8.25;75.00;99008.31;5017891;28;20042;-85
2024/01/01 04:54:19;;;;;;;20.08;3.97;;;8.20;99.90;;;8.30;74.85;98996.19;4999772;28;20081;-85
2024/01/01 04:56:47;;;;;;;18.98;3.10;;;8.20;99.90;;;8.29;74.12;98994.56;4999750;28;20041;-85
2024/01/01 04:59:16;;;;;;;19.02;3.47;;;8.30;99.90;;;8.26;74.49;98999.31;5017310;28;20046;-85
2024/01/01 05:01:43;;;;;;;22.60;3.80;;;8.20;99.90;;;8.26;74.50;99004.63;5015816;28;20046;-85
2024/01/01 05:04:11;;;;;;;18.30;3.28;;;8.20;99.90;;;8.18;73.35;99002.31;5017157;28;20128;-85
2024/01/01 05:06:39;;;;;;;19.08;3.22;;;8.30;99.90;;;8.14;73.59;99011.75;5015857;28;20111;-85
2024/01/01 05:09:07;;;;;;;22.10;3.45;;;8.20;99.90;;;8.13;73.70;99012.00;5017065;28;20603;-85
2024/01/01 05:11:39;;;;;;;20.25;3.03;;;8.20;99.90;;;8.11;74.03;99006.94;5015602;28;20635;-85
2024/01/01 05:14:07;;;;;;;21.80;3.97;;;8.20;99.90;;;8.21;73.89;99006.34;4999697;28;20077;-85
2024/01/01 05:16:39;;;;;;;14.73;3.05;;;8.20;99.90;;;8.27;73.45;99024.00;5016456;28;20053;-85
2024/01/01 05:19:07;;;;;;;14.45;3.08;;;8.30;99.90;;;8.30;73.21;99007.63;5018657;28;20054;-85
2024/01/01 05:21:35;;;;;;;21.13;3.15;;;8.30;99.90;;;8.30;72.88;99012.13;5017095;28;20052;-85
2024/01/01 05:24:03;;;;;;;18.17;3.22;;;8.30;99.90;;;8.24;72.23;99022.59;5017114;28;20129;-86
2024/01/01 05:26:30;;;;;;;21.70;3.25;;;8.30;99.90;;;8.24;72.46;99019.16;5016648;28;20093;-86
2024/01/01 05:28:58;;;;;;;18.00;2.90;;;8.30;99.90;;;8.22;72.68;99022.03;5018281;28;20048;-86
2024/01/01 05:31:27;;;;;;;21.50;2.80;;;8.30;99.90;;;8.21;72.38;99031.06;4999819;28;20517;-86
2024/01/01 05:33:56;;;;;;;19.05;3.65;;;8.30;99.90;;;8.35;72.74;99025.53;5015919;28;20054;-86
2024/01/01 05:36:23;;;;;;;20.75;3.65;;;8.40;99.90;;;8.31;71.19;99021.72;5015987;28;20065;-86
2024/01/01 05:38:51;;;;;;;21.00;3.20;;;8.30;99.90;;;8.32;71.58;99031.28;5017581;28;20049;-86
2024/01/01 05:41:18;;;;;;;20.35;3.42;;;8.40;99.90;;;8.27;71.36;99030.13;5016189;28;20464;-86
2024/01/01 05:43:46;;;;;;;15.25;3.15;;;8.40;99.90;;;8.33;71.80;99032.91;4999934;28;20058;-86
2024/01/01 05:46:14;;;;;;;19.17;3.25;;;8.40;99.90;;;8.24;70.98;99030.56;4983124;28;20569;-86
2024/01/01 05:48:41;;;;;;;19.20;3.08;;;8.30;99.90;;;8.32;71.32;99037.41;5016003;28;20065;-86
2024/01/01 05:51:10;;;;;;;14.88;3.15;;;8.40;99.90;;;8.35;71.20;99041.47;5017400;28;20124;-86
2024/01/01 05:53:40;;;;;;;15.55;2.85;;;8.50;99.90;;;8.35;70.91;99049.44;4999733;28;20421;-86
2024/01/01 05:56:08;;;;;;;19.08;3.25;;;8.40;99.90;;;8.31;70.93;99050.94;5017744;28;20048;-86
2024/01/01 05:58:36;;;;;;;18.10;3.28;;;8.40;99.90;;;8.32;70.99;99056.00;5015964;28;20528;-86
2024/01/01 06:01:04;;;;;;;14.90;3.17;;;8.40;99.90;;;8.33;71.24;99060.25;5015950;28;20053;-86
2024/01/01 06:03:31;;;;;;;25.13;3.38;;;8.40;99.90;;;8.33;70.30;99059.47;5016061;28;20117;-86
2024/01/01 06:05:59;;;;;;;16.33;2.90;;;8.40;99.90;;;8.32;70.70;99053.34;5015738;28;20041;-86
2024/01/01 06:08:28;;;;;;;16.13;2.70;;;8.40;99.90;;;8.37;70.71;99066.75;5015520;28;20050;-86
2024/01/01 06:10:56;;;;;;;17.20;2.72;;;8.50;99.90;;;8.34;69.91;99067.19;5016302;28;20050;-86
2024/01/01 06:13:25;;;;;;;16.48;2.65;;;8.40;99.90;;;8.42;70.55;99066.06;5016383;28;20053;-86
2024/01/01 06:15:54;;;;;;;18.98;3.17;;;8.40;99.90;;;8.41;70.34;99073.25;5016831;28;20053;-86
2024/01/01 06:18:25;;;;;;;19.27;3.13;;;8.40;99.90;;;8.37;69.88;99076.59;5016957;28;20049;-86
2024/01/01 06:20:52;;;;;;;18.65;3.22;;;8.40;99.90;;;8.42;70.61;99080.16;4983453;28;20053;-86
2024/01/01 06:23:21;;;;;;;16.98;2.88;;;8.40;99.90;;;8.46;70.33;99083.16;5016780;28;20052;-86
2024/01/01 06:25:51;;;;;;;15.02;2.50;;;8.50;99.90;;;8.48;70.25;99091.72;5017051;28;20096;-86
2024/01/01 06:28:23;;;;;;;20.42;3.10;;;8.50;99.90;;;8.47;70.13;99084.78;5016686;28;20112;-86
2024/01/01 06:30:50;;;;;;;18.90;2.97;;;8.50;99.90;;;8.41;69.38;99083.06;5017036;28;20069;-86
2024/01/01 06:33:19;;;;;;;17.45;4.18;;;8.40;99.90;;;8.38;69.72;99097.59;5017044;28;20164;-86
2024/01/01 06:35:46;;;;;;;20.17;3.60;;;8.40;99.90;;;8.45;69.97;99094.84;5015408;28;20452;-86
2024/01/01 06:38:14;;;;;;;11.90;2.83;;;8.50;99.90;;;8.34;69.63;99114.19;5016030;28;20092;-86
2024/01/01 06:40:43;;;;;;;13.32;2.45;;;8.50;99.90;;;8.36;69.32;99106.81;5016441;28;20041;-86
2024/01/01 06:43:12;;;;;;;16.65;3.42;;;8.40;99.90;;;8.31;69.42;99109.34;5016265;28;20042;-86
2024/01/01 06:45:40;;;;;;;14.10;2.60;;;8.40;99.90;;;8.34;70.87;99109.69;5015289;28;20064;-86
2024/01/01 06:48:11;;;;;;;19.20;3.88;;;8.40;99.90;;;8.40;70.94;99113.31;5015117;28;20050;-86
2024/01/01 06:50:40;;;;;;;21.08;3.33;;;8.50;99.90;;;8.32;71.30;99122.41;4999605;28;20049;-86
2024/01/01 06:53:08;;;;;;;16.77;2.50;;;8.40;99.90;;;8.37;72.31;99132.38;4998895;28;20509;-86
2024/01/01 06:55:35;;;;;;;23.48;3.22;;;8.40;99.90;;;8.37;73.03;99135.03;5015608;28;20103;-86
2024/01/01 06:58:03;;;;;;;22.27;3.22;;;8.40;99.90;;;8.30;73.96;99142.28;5016186;28;20049;-86
2024/01/01 07:00:32;;;;;;;13.52;2.70;;;8.30;99.90;;;8.23;74.50;99135.19;5016611;28;20464;-86
2024/01/01 07:03:00;;;;;;;14.75;2.92;;;8.20;99.90;;;8.21;74.61;99153.22;5016214;28;20042;-86
2024/01/01 07:05:29;;;;;;;15.05;2.55;;;8.20;99.90;;;8.08;75.25;99147.31;5016080;28;20493;-86
2024/01/01 07:07:57;;;;;;;10.13;2.38;;;8.10;99.90;;;8.08;75.53;99153.41;5014400;28;20123;-86
2024/01/01 07:10:24;;;;;;;10.98;2.28;;;8.10;99.90;;;8.09;75.34;99159.53;5013883;28;20046;-86
2024/01/01 07:12:52;;;;;;;11.65;2.08;;;8.10;99.90;;;8.08;74.93;99161.38;5014208;28;20042;-86
2024/01/01 07:15:21;;;;;;;13.20;2.22;;;8.10;99.90;;;8.11;75.02;99162.78;4998048;28;20050;-86
2024/01/01 07:17:52;;;;;;;17.38;2.72;;;8.00;99.90;;;8.10;74.92;99171.75;4997670;28;20136;-86
2024/01/01 07:20:20;;;;;;;13.45;2.40;;;8.00;99.90;;;8.18;74.95;99163.47;5013959;28;20046;-86
2024/01/01 07:22:47;;;;;;;12.60;2.40;;;8.10;99.90;;;8.09;75.14;99163.00;5015152;28;20076;-85
2024/01/01 07:25:15;;;;;;;16.60;2.95;;;8.00;99.90;;;8.03;74.83;99171.06;5015353;28;20073;-86
2024/01/01 07:27:43;;;;;;;14.75;3.33;;;8.00;99.90;;;7.98;74.41;99172.56;5015216;28;20046;-86
2024/01/01 07:30:12;;;;;;;14.88;2.50;;;8.00;99.90;;;8.01;75.05;99176.63;5013887;28;20042;-85
2024/01/01 07:32:39;;;;;;;13.25;2.25;;;8.00;99.90;;;7.92;75.23;99184.09;4998513;28;20448;-86
2024/01/01 07:35:09;;;;;;;16.63;2.78;;;7.90;99.90;;;7.94;74.84;99189.16;5015592;28;20049;-86
2024/01/01 07:37:36;;;;;;;11.75;2.22;;;7.90;99.90;;;7.92;74.83;99191.25;4981953;28;20148;-86
2024/01/01 07:40:05;;;;;;;12.00;2.20;;;7.90;99.90;;;7.95;74.77;99190.75;5016038;28;20137;-86
2024/01/01 07:42:33;;;;;;;13.95;2.38;;;8.00;99.90;;;7.99;75.21;99205.22;5014612;28;20100;-86
2024/01/01 07:45:01;;;;;;;14.30;2.80;;;8.00;99.90;;;7.92;74.80;99199.19;5015090;28;20073;-86
2024/01/01 07:47:29;;;;;;;12.43;2.50;;;8.00;99.90;;;7.87;74.20;99205.19;5015486;28;20100;-86
2024/01/01 07:49:57;;;;;;;12.52;2.67;;;8.00;99.90;;;7.88;74.90;99193.53;4997637;28;20054;-86
2024/01/01 07:52:27;;;;;;;18.02;2.92;;;8.00;99.90;;;7.94;74.66;99216.50;5015359;28;20045;-86
2024/01/01 07:54:57;;;;;;;8.85;2.10;;;8.00;99.90;;;8.07;74.49;99220.03;5014197;28;20050;-86
2024/01/01 07:57:27;;;;;;;8.60;2.35;;;8.00;99.90;;;7.95;73.80;99227.94;4982074;28;20564;-86
2024/01/01 07:59:58;;;;;;;9.90;2.63;;;8.00;99.90;;;7.85;74.25;99220.50;5013917;28;20564;-86
2024/01/01 08:02:25;;;;;;;10.23;2.13;;;8.00;99.90;;;8.02;74.23;99222.56;5013683;28;20046;-86
2024/01/01 08:04:54;;;;;;;13.90;2.20;;;8.00;99.90;;;8.02;73.66;99218.06;5014988;28;20497;-86
2024/01/01 08:07:22;;;;;;;9.98;1.88;;;8.00;99.90;;;7.93;73.84;99230.00;5015135;28;20077;-86
2024/01/01 08:09:52;;;;;;;15.05;2.47;;;8.00;99.90;;;8.03;73.63;99238.25;5018661;28;20057;-86
2024/01/01 08:12:19;;;;;;;12.77;2.55;;;8.20;99.90;;;8.06;73.34;99243.13;5018509;28;20119;-86
2024/01/01 08:14:46;;;;;;;14.18;2.55;;;8.10;99.90;;;8.02;73.35;99243.78;5018889;28;20049;-86
2024/01/01 08:17:14;;;;;;;8.50;2.20;;;8.10;99.90;;;7.93;73.64;99251.25;5018439;28;20041;-86
2024/01/01 08:19:42;;;;;;;14.05;2.15;;;8.00;99.90;;;7.97;73.58;99237.31;5018517;28;20048;-86
2024/01/01 08:22:10;;;;;;;13.25;2.42;;;8.00;99.90;;;7.85;73.38;99246.25;5016328;28;20540;-86
2024/01/01 08:24:37;;;;;;;8.07;1.88;;;8.00;99.90;;;7.88;73.41;99259.06;4999548;28;20144;-86
2024/01/01 08:27:08;;;;;;;8.75;1.70;;;8.00;99.90;;;7.96;73.49;99261.44;4983623;28;20106;-86
2024/01/01 08:29:35;;;;;;;11.67;2.20;;;8.00;99.90;;;8.06;73.33;99261.72;4984172;28;20490;-86
2024/01/01 08:32:03;;;;;;;9.75;1.90;;;8.10;99.90;;;8.13;73.18;99272.22;5016815;28;20351;-86
2024/01/01 08:34:40;;;;;;;14.15;2.35;;;8.10;99.90;;;8.02;72.97;99270.34;5018565;28;20046;-88
2024/01/01 08:37:08;;;;;;;11.38;2.20;;;8.10;99.90;;;7.98;72.80;99280.59;5019530;28;20053;-87
2024/01/01 08:39:35;;;;;;;11.38;2.08;;;8.10;99.90;;;7.96;73.11;99277.38;5013796;28;20034;-88
2024/01/01 08:42:03;;;;;;;6.25;1.70;;;8.10;99.90;;;7.94;72.91;99274.91;4998502;28;20069;-87
2024/01/01 08:44:32;;;;;;;11.35;2.00;;;8.10;99.90;;;7.92;72.64;99278.84;5015535;28;20073;-87
2024/01/01 08:47:00;;;;;;;6.53;1.90;;;8.00;99.90;;;8.06;72.75;99285.59;5015492;28;20101;-87
2024/01/01 08:49:28;;;;;;;10.10;2.22;;;8.10;99.90;;;8.08;72.63;99274.75;4980656;28;20061;-88
2024/01/01 08:51:55;;;;;;;9.50;1.55;;;8.10;99.90;;;8.05;72.61;99294.59;4997223;28;20062;-87
2024/01/01 08:54:23;;;;;;;7.90;1.40;;;8.10;99.90;;;7.99;72.40;99290.19;4995750;28;20489;-87
2024/01/01 08:56:51;;;;;;;8.45;1.52;;;8.10;99.90;;;7.96;72.95;99288.78;4995503;28;20066;-89
2024/01/01 08:59:20;;;;;;;11.48;1.90;;;8.10;99.90;;;8.07;73.17;99297.03;4980338;28;20046;-88
2024/01/01 09:01:49;;;;;;;8.48;1.60;;;8.10;99.90;;;8.12;72.64;99307.78;4997316;28;20136;-87
2024/01/01 09:04:19;;;;;;;9.10;1.70;;;8.10;99.90;;;8.11;72.98;99300.88;4963249;28;20050;-88
2024/01/01 09:06:46;;;;;;;8.73;2.03;;;8.20;99.90;;;8.06;72.18;99298.88;4979705;28;20433;-88
2024/01/01 09:09:14;;;;;;;8.00;2.20;;;8.10;99.90;;;8.07;72.91;99302.34;4996766;28;20048;-88
2024/01/01 09:11:43;;;;;;;10.50;1.88;;;8.10;99.90;;;8.08;72.56;99296.81;4998084;28;20042;-88
2024/01/01 09:14:11;;;;;;;14.20;1.95;;;8.10;99.90;;;8.06;72.11;99312.16;4996626;28;20417;-87
2024/01/01 09:16:39;;;;;;;10.73;2.40;;;8.10;99.90;;;8.12;72.35;99302.47;4997378;28;20058;-86
2024/01/01 09:19:08;;;;;;;10.30;1.90;;;8.30;99.90;;;8.20;72.40;99310.97;4995969;28;20061;-87
2024/01/01 09:21:36;;;;;;;7.57;1.60;;;8.20;99.90;;;8.10;72.35;99305.38;4995504;28;20050;-86
2024/01/01 09:24:04;;;;;;;7.18;1.60;;;8.20;99.90;;;8.09;72.05;99314.34;4981517;28;20070;-86
2024/01/01 09:26:31;;;;;;;12.55;2.30;;;8.10;99.90;;;8.11;72.33;99312.31;4981562;28;20042;-85
2024/01/01 09:28:59;;;;;;;10.07;2.00;;;8.10;99.90;;;8.15;72.39;99325.91;4998715;28;20073;-85
2024/01/01 09:31:28;;;;;;;6.78;1.60;;;8.10;99.90;;;8.25;72.84;99331.53;4982441;28;20074;-85
2024/01/01 09:34:00;;;;;;;7.90;1.52;;;8.20;99.90;;;8.18;72.09;99339.56;4998684;28;20050;-87
2024/01/01 09:36:30;;;;;;;4.85;1.45;;;8.20;99.90;;;8.22;72.06;99332.78;4980701;28;20046;-86
2024/01/01 09:38:58;;;;;;;11.60;1.92;;;8.20;99.90;;;8.12;72.29;99344.97;4986121;28;20058;-84
2024/01/01 09:41:27;;;;;;;7.97;1.67;;;8.10;99.90;;;8.12;72.32;99344.97;5001444;28;20074;-86
2024/01/01 09:43:55;;;;;;;6.50;1.75;;;8.10;99.90;;;8.15;73.00;99345.34;4982767;28;20046;-84
2024/01/01 09:46:23;;;;;;;10.70;2.08;;;8.10;99.90;;;8.18;72.37;99350.19;4999881;28;20105;-85
2024/01/01 09:48:51;;;;;;;9.10;1.80;;;8.10;99.90;;;8.21;72.07;99352.41;4999723;28;20046;-86
2024/01/01 09:51:20;;;;;;;9.85;1.95;;;8.20;99.90;;;8.19;72.23;99349.16;4998776;28;20043;-84
2024/01/01 09:53:49;;;;;;;9.15;2.28;;;8.20;99.90;;;8.17;72.14;99363.69;5001070;28;20041;-84
2024/01/01 09:56:18;;;;;;;9.25;1.88;;;8.20;99.90;;;8.15;72.59;99365.75;5000869;28;20137;-83
2024/01/01 09:58:47;;;;;;;9.82;2.10;;;8.20;99.90;;;8.17;72.60;99361.84;4999670;28;20046;-84
2024/01/01 10:01:18;;;;;;;10.25;2.10;;;8.20;99.90;;;8.13;72.40;99358.00;4982341;28;20089;-84
2024/01/01 10:04:00;;;;;;;;;;;8.10;99.90;;;8.20;72.58;99364.06;5000841;28;20092;-84
2024/01/01 10:06:28;;;;;;;10.65;1.90;;;8.20;99.90;;;8.24;72.76;99367.06;4985081;28;20392;-84
2024/01/01 10:09:06;;;;;;;10.70;2.22;;;8.20;99.90;;;8.30;72.88;99378.69;4998901;28;20046;-84
2024/01/01 10:11:38;;;;;;;6.45;1.75;;;8.30;99.90;;;8.17;72.91;99371.66;5000081;28;20050;-85
2024/01/01 10:14:08;;;;;;;7.80;1.83;;;8.30;99.90;;;8.26;73.51;99373.00;4984366;28;20424;-85
2024/01/01 10:16:38;;;;;;;8.93;2.03;;;8.30;99.90;;;8.35;73.78;99376.16;4999171;28;20097;-85
2024/01/01 10:19:06;;;;;;;12.88;1.88;;;8.30;99.90;;;8.35;73.08;99370.84;4984043;28;20046;-85
2024/01/01 10:21:37;;;;;;;9.00;1.95;;;8.30;99.90;;;8.26;73.25;99373.00;5001835;28;20039;-85
2024/01/01 10:24:16;;;;;;;8.65;1.90;;;8.30;99.90;;;8.23;73.60;99379.53;5000473;28;20059;-84
2024/01/01 10:26:48;;;;;;;11.05;2.20;;;8.30;99.90;;;8.20;73.48;99374.69;4998256;28;20050;-85
2024/01/01 10:29:18;;;;;;;9.25;2.13;;;8.20;99.90;;;8.30;73.55;99389.31;4999447;28;20081;-84
2024/01/01 10:31:48;;;;;;;15.60;2.00;;;8.30;99.90;;;8.26;73.23;99394.25;5001280;28;20050;-84